Time;durP1;ratioP1;P1;durP2;ratioP2;P2;SDS_P1;SDS_P2;PMS_P1;PMS_P2;Temp;Humidity;BMP_temperature;BMP_pressure;BME280_temperature;BME280_humidity;BME280_pressure;Samples;Min_cycle;Max_cycle;Signal;HPM_P1;HPM_P2
2022/06/11 00:00:09;;;;;;;0.95;0.50;;;23.30;60.40;;;;;;6273584;28;20126;-55
2022/06/11 00:03:11;;;;;;;1.10;0.52;;;23.60;60.60;;;;;;6274908;28;20086;-51
2022/06/11 00:06:14;;;;;;;0.95;0.50;;;23.70;60.60;;;;;;6277398;28;20043;-49
2022/06/11 00:09:17;;;;;;;0.93;0.63;;;23.50;60.50;;;;;;6275127;28;20219;-52
2022/06/11 00:12:19;;;;;;;1.40;0.50;;;23.60;60.60;;;;;;6264044;28;20075;-54
2022/06/11 00:15:21;;;;;;;1.00;0.50;;;23.60;60.60;;;;;;6272950;28;20059;-53
2022/06/11 00:18:24;;;;;;;1.65;0.60;;;23.50;60.50;;;;;;6272806;28;20100;-51
2022/06/11 00:21:30;;;;;;;1.88;0.90;;;23.20;60.40;;;;;;6276859;28;20078;-54
2022/06/11 00:24:33;;;;;;;1.67;1.00;;;23.40;60.50;;;;;;6274092;28;20043;-49
2022/06/11 00:27:34;;;;;;;4.07;0.95;;;23.50;61.30;;;;;;6275862;28;20249;-51
2022/06/11 00:30:36;;;;;;;1.38;0.80;;;23.50;60.60;;;;;;6275929;28;20097;-53
2022/06/11 00:33:39;;;;;;;2.15;0.98;;;23.50;60.70;;;;;;6277850;28;20104;-49
2022/06/11 00:36:43;;;;;;;1.75;0.95;;;23.50;60.70;;;;;;6276363;28;20160;-50
2022/06/11 00:39:45;;;;;;;1.70;0.70;;;23.40;60.70;;;;;;6276514;28;20151;-50
2022/06/11 00:42:47;;;;;;;1.35;0.70;;;23.60;60.80;;;;;;6273654;28;20101;-51
2022/06/11 00:45:58;;;;;;;2.15;1.10;;;23.50;60.80;;;;;;6276866;28;20155;-56
2022/06/11 00:49:01;;;;;;;2.35;0.82;;;23.40;60.70;;;;;;6275077;28;20072;-49
2022/06/11 00:52:16;;;;;;;1.65;0.90;;;23.40;60.70;;;;;;6275524;28;20155;-50
2022/06/11 00:55:22;;;;;;;2.92;0.90;;;23.20;60.70;;;;;;6264987;28;20525;-50
2022/06/11 00:58:27;;;;;;;3.60;1.10;;;23.40;60.70;;;;;;6274259;28;20167;-50
2022/06/11 01:01:30;;;;;;;2.42;1.00;;;23.40;60.70;;;;;;6272531;28;20154;-53
2022/06/11 01:04:49;;;;;;;1.85;0.98;;;23.40;60.70;;;;;;6271764;28;20125;-53
2022/06/11 01:08:06;;;;;;;2.65;0.80;;;23.40;60.70;;;;;;6274925;28;20032;-49
2022/06/11 01:11:28;;;;;;;1.45;0.70;;;23.40;60.70;;;;;;6278618;28;20293;-53
2022/06/11 01:14:39;;;;;;;1.95;1.08;;;23.30;60.70;;;;;;6274945;28;20055;-52
2022/06/11 01:17:50;;;;;;;2.45;1.00;;;23.30;60.70;;;;;;6277486;28;20122;-51
2022/06/11 01:21:01;;;;;;;2.50;0.90;;;23.30;60.70;;;;;;6278492;28;21165;-51
2022/06/11 01:24:26;;;;;;;2.67;1.00;;;23.30;60.70;;;;;;6279813;28;20047;-51
2022/06/11 01:27:51;;;;;;;1.20;0.70;;;23.20;60.70;;;;;;6285471;28;20052;-52
2022/06/11 01:30:58;;;;;;;1.60;0.98;;;23.20;60.70;;;;;;6294433;27;20164;-52
2022/06/11 01:34:16;;;;;;;1.23;0.60;;;23.30;60.80;;;;;;6275234;28;20048;-47
2022/06/11 01:37:24;;;;;;;1.48;0.60;;;23.20;60.70;;;;;;6279357;28;20082;-55
2022/06/11 01:40:35;;;;;;;0.80;0.60;;;23.20;60.90;;;;;;6275223;28;20928;-50
2022/06/11 01:43:39;;;;;;;;;;;23.30;60.80;;;;;;6274047;28;20206;-54
2022/06/11 01:46:45;;;;;;;1.30;0.60;;;23.30;60.80;;;;;;6276808;28;19969;-50
2022/06/11 01:49:49;;;;;;;1.50;0.50;;;23.30;60.80;;;;;;6276174;28;20038;-49
2022/06/11 01:53:03;;;;;;;1.00;0.60;;;23.20;60.70;;;;;;6276469;28;20051;-50
2022/06/11 01:56:20;;;;;;;2.75;0.80;;;23.20;60.70;;;;;;6278401;28;20120;-50
2022/06/11 01:59:42;;;;;;;0.75;0.45;;;23.30;60.90;;;;;;6277300;28;20107;-51
2022/06/11 02:03:11;;;;;;;1.38;0.68;;;23.30;60.80;;;;;;6276655;28;20310;-51
2022/06/11 02:06:29;;;;;;;0.93;0.40;;;23.20;60.80;;;;;;6279873;28;20055;-49
2022/06/11 02:09:39;;;;;;;0.60;0.45;;;23.00;60.50;;;;;;6273155;28;20063;-50
2022/06/11 02:12:45;;;;;;;1.98;0.90;;;23.20;60.60;;;;;;6274330;28;20036;-49
2022/06/11 02:15:53;;;;;;;2.75;0.88;;;23.20;60.70;;;;;;6273969;28;20151;-50
2022/06/11 02:18:59;;;;;;;2.97;0.80;;;23.20;60.50;;;;;;6271926;28;20044;-53
2022/06/11 02:22:05;;;;;;;3.50;1.05;;;23.20;60.30;;;;;;6271392;28;20044;-51
2022/06/11 02:25:15;;;;;;;2.78;1.20;;;23.20;60.20;;;;;;6274800;28;21129;-47
2022/06/11 02:28:21;;;;;;;3.42;0.75;;;23.20;60.20;;;;;;6274837;28;20036;-51
2022/06/11 02:31:27;;;;;;;1.92;0.75;;;23.30;60.10;;;;;;6276920;28;20079;-49
2022/06/11 02:34:30;;;;;;;3.92;1.23;;;23.20;60.00;;;;;;6294272;27;20043;-50
2022/06/11 02:37:34;;;;;;;2.40;0.98;;;23.20;59.90;;;;;;6273029;28;20151;-52
2022/06/11 02:40:41;;;;;;;4.20;0.98;;;23.00;59.70;;;;;;6256209;28;20855;-48
2022/06/11 02:43:43;;;;;;;2.22;0.90;;;23.00;59.60;;;;;;6258698;28;20142;-50
2022/06/11 02:46:45;;;;;;;3.20;0.70;;;23.20;59.60;;;;;;6265049;28;20040;-50
2022/06/11 02:49:49;;;;;;;3.13;1.20;;;23.10;59.50;;;;;;6272418;28;20028;-51
2022/06/11 02:52:51;;;;;;;1.83;0.75;;;23.00;59.30;;;;;;6272998;28;20170;-50
2022/06/11 02:55:53;;;;;;;2.10;0.85;;;23.00;59.20;;;;;;6265445;28;20078;-51
2022/06/11 02:58:55;;;;;;;3.03;1.23;;;23.20;59.30;;;;;;6260157;28;20265;-49
2022/06/11 03:01:57;;;;;;;4.72;1.33;;;23.20;59.20;;;;;;6258313;28;20047;-48
2022/06/11 03:04:59;;;;;;;2.33;0.80;;;23.20;59.20;;;;;;6257402;28;20356;-48
2022/06/11 03:08:03;;;;;;;3.05;1.15;;;23.00;58.90;;;;;;6254321;28;20154;-50
2022/06/11 03:11:04;;;;;;;1.52;0.52;;;23.10;58.90;;;;;;6247754;28;20094;-50
2022/06/11 03:14:06;;;;;;;2.50;0.90;;;23.10;58.90;;;;;;6258978;28;20721;-49
2022/06/11 03:17:08;;;;;;;2.78;0.82;;;23.30;58.90;;;;;;6258476;28;20176;-51
2022/06/11 03:20:12;;;;;;;5.75;1.15;;;23.10;58.80;;;;;;6259444;28;20131;-51
2022/06/11 03:23:14;;;;;;;2.63;1.13;;;23.00;58.60;;;;;;6254675;28;20102;-50
2022/06/11 03:26:16;;;;;;;2.38;0.70;;;23.00;58.60;;;;;;6257814;28;20391;-49
2022/06/11 03:29:20;;;;;;;2.75;0.93;;;23.20;58.70;;;;;;6260995;28;20237;-51
2022/06/11 03:32:21;;;;;;;3.75;1.02;;;23.10;58.60;;;;;;6235686;28;20490;-51
2022/06/11 03:35:23;;;;;;;3.45;0.98;;;23.00;58.50;;;;;;6258101;28;20264;-52
2022/06/11 03:38:25;;;;;;;3.08;0.90;;;22.90;58.40;;;;;;6250701;28;20170;-51
2022/06/11 03:41:27;;;;;;;2.78;0.95;;;23.00;59.00;;;;;;6258222;28;20407;-49
2022/06/11 03:44:29;;;;;;;1.55;0.57;;;23.10;58.40;;;;;;6256517;28;20105;-49
2022/06/11 03:47:30;;;;;;;3.83;1.00;;;23.10;58.40;;;;;;6258260;28;20524;-49
2022/06/11 03:50:37;;;;;;;3.22;1.02;;;23.00;58.30;;;;;;6252149;28;20147;-50
2022/06/11 03:53:40;;;;;;;2.70;0.85;;;23.00;58.30;;;;;;6252283;28;20263;-47
2022/06/11 03:56:44;;;;;;;2.30;0.95;;;22.90;58.30;;;;;;6254783;28;20494;-49
2022/06/11 03:59:45;;;;;;;2.05;1.00;;;23.10;58.30;;;;;;6255753;28;20378;-52
2022/06/11 04:02:47;;;;;;;2.50;1.08;;;23.10;58.30;;;;;;6255862;28;20038;-48
2022/06/11 04:05:50;;;;;;;1.35;0.77;;;23.00;58.30;;;;;;6258627;28;20352;-50
2022/06/11 04:08:52;;;;;;;4.05;1.20;;;23.00;58.30;;;;;;6253723;28;20082;-50
2022/06/11 04:11:54;;;;;;;5.22;1.23;;;23.10;58.40;;;;;;6256053;28;20040;-52
2022/06/11 04:14:56;;;;;;;3.17;0.80;;;22.90;58.30;;;;;;6253364;28;20353;-49
2022/06/11 04:17:59;;;;;;;1.92;0.63;;;23.00;58.40;;;;;;6253930;28;20369;-49
2022/06/11 04:21:04;;;;;;;2.65;0.95;;;23.00;58.40;;;;;;6250690;28;20086;-48
2022/06/11 04:24:07;;;;;;;1.13;0.40;;;22.90;58.40;;;;;;6231702;28;20274;-47
2022/06/11 04:27:10;;;;;;;1.98;0.60;;;23.00;58.40;;;;;;6248505;28;20461;-52
2022/06/11 04:30:14;;;;;;;1.40;0.63;;;23.00;58.50;;;;;;6250247;28;20051;-49
2022/06/11 04:33:16;;;;;;;1.58;0.80;;;23.10;58.50;;;;;;6255111;28;20398;-49
2022/06/11 04:36:22;;;;;;;1.52;0.50;;;23.00;58.40;;;;;;6259766;28;20469;-50
2022/06/11 04:39:26;;;;;;;0.77;0.40;;;22.90;58.40;;;;;;6239318;28;20574;-52
2022/06/11 04:42:28;;;;;;;2.25;0.90;;;22.90;58.40;;;;;;6256410;28;20657;-48
2022/06/11 04:45:30;;;;;;;1.75;0.80;;;22.90;58.40;;;;;;6256067;28;20353;-50
2022/06/11 04:48:32;;;;;;;1.92;0.60;;;22.90;58.30;;;;;;6251504;28;20599;-49
2022/06/11 04:51:35;;;;;;;3.60;0.70;;;22.90;58.30;;;;;;6256454;28;20091;-51
2022/06/11 04:54:37;;;;;;;3.25;0.93;;;23.00;58.30;;;;;;6254986;28;20539;-48
2022/06/11 04:57:38;;;;;;;2.88;0.85;;;22.90;58.30;;;;;;6258867;28;20155;-50
2022/06/11 05:00:39;;;;;;;;;;;22.90;58.20;;;;;;6255818;28;20592;-50
2022/06/11 05:03:42;;;;;;;3.20;1.08;;;22.90;58.20;;;;;;6255750;28;20050;-50
2022/06/11 05:06:46;;;;;;;2.47;0.85;;;22.90;58.20;;;;;;6252591;28;20469;-53
2022/06/11 05:09:49;;;;;;;2.08;0.85;;;23.00;58.30;;;;;;6251992;28;20706;-49
2022/06/11 05:12:51;;;;;;;1.83;0.80;;;22.70;58.10;;;;;;6243619;28;20648;-52
2022/06/11 05:15:57;;;;;;;2.13;0.70;;;22.90;58.20;;;;;;6254703;28;20391;-51
2022/06/11 05:18:58;;;;;;;3.97;1.08;;;22.80;58.20;;;;;;6255571;28;20461;-48
2022/06/11 05:22:01;;;;;;;3.33;0.93;;;22.80;58.30;;;;;;6255322;28;20668;-48
2022/06/11 05:25:04;;;;;;;2.90;0.80;;;22.90;58.30;;;;;;6254697;28;20471;-50
2022/06/11 05:28:06;;;;;;;2.17;0.68;;;22.90;58.30;;;;;;6257209;28;20183;-48
2022/06/11 05:31:08;;;;;;;2.03;0.75;;;22.80;58.30;;;;;;6257452;28;20039;-52
2022/06/11 05:34:10;;;;;;;2.97;1.38;;;23.00;58.40;;;;;;6254092;28;20058;-51
2022/06/11 05:37:13;;;;;;;3.78;1.20;;;22.70;58.30;;;;;;6252640;28;21278;-50
2022/06/11 05:40:16;;;;;;;4.55;1.20;;;22.70;58.20;;;;;;6251277;28;20357;-51
2022/06/11 05:43:18;;;;;;;2.67;1.30;;;22.90;58.40;;;;;;6253719;28;20274;-51
2022/06/11 05:46:23;;;;;;;2.45;1.08;;;22.80;58.40;;;;;;6256664;28;20044;-47
2022/06/11 05:49:32;;;;;;;3.25;1.00;;;22.80;58.40;;;;;;6253924;28;20124;-47
2022/06/11 05:52:39;;;;;;;2.70;1.25;;;22.70;58.30;;;;;;6255515;28;20303;-50
2022/06/11 05:55:43;;;;;;;3.92;1.27;;;22.90;58.50;;;;;;6257091;28;20194;-53
2022/06/11 05:58:51;;;;;;;5.75;1.27;;;22.80;58.50;;;;;;6254168;28;20164;-49
2022/06/11 06:01:54;;;;;;;3.65;1.52;;;22.80;58.50;;;;;;6235256;28;20044;-51
2022/06/11 06:04:56;;;;;;;4.07;1.10;;;22.60;58.40;;;;;;6251088;28;20074;-55
2022/06/11 06:07:58;;;;;;;3.83;0.93;;;22.90;59.10;;;;;;6255726;28;20436;-52
2022/06/11 06:11:00;;;;;;;2.67;0.65;;;22.80;58.60;;;;;;6251565;28;20446;-48
2022/06/11 06:14:02;;;;;;;3.83;1.17;;;22.60;58.60;;;;;;6257456;28;20158;-50
2022/06/11 06:17:04;;;;;;;3.30;1.10;;;22.80;58.70;;;;;;6253926;28;20210;-51
2022/06/11 06:20:25;;;;;;;3.50;1.17;;;22.80;58.70;;;;;;6252786;28;20043;-49
2022/06/11 06:23:28;;;;;;;4.38;0.98;;;22.80;58.70;;;;;;6255393;28;20372;-50
2022/06/11 06:26:30;;;;;;;2.67;1.17;;;22.80;58.70;;;;;;6255134;28;20151;-50
2022/06/11 06:29:31;;;;;;;3.70;1.50;;;22.80;59.10;;;;;;6255230;28;20238;-51
2022/06/11 06:32:33;;;;;;;3.42;0.80;;;22.80;58.80;;;;;;6264019;28;20151;-51
2022/06/11 06:35:35;;;;;;;3.55;0.88;;;22.70;58.80;;;;;;6271076;28;20055;-50
2022/06/11 06:38:38;;;;;;;3.70;0.98;;;22.80;58.90;;;;;;6257893;28;20159;-49
2022/06/11 06:41:40;;;;;;;2.83;0.73;;;22.80;58.90;;;;;;6249082;28;20182;-52
2022/06/11 06:44:41;;;;;;;5.03;1.20;;;22.70;58.90;;;;;;6252150;28;20659;-48
2022/06/11 06:47:44;;;;;;;3.88;1.23;;;22.70;58.90;;;;;;6253557;28;20330;-50
2022/06/11 06:50:46;;;;;;;3.00;0.90;;;22.70;58.90;;;;;;6250812;28;20335;-51
2022/06/11 06:53:48;;;;;;;6.28;1.45;;;22.70;58.90;;;;;;6250103;28;20167;-49
2022/06/11 06:56:50;;;;;;;5.18;1.20;;;22.80;58.90;;;;;;6252689;28;20047;-51
2022/06/11 06:59:51;;;;;;;5.25;1.50;;;22.70;58.80;;;;;;6254128;28;20334;-51
2022/06/11 07:02:53;;;;;;;;;;;22.50;58.70;;;;;;6254560;28;20199;-53
2022/06/11 07:05:55;;;;;;;3.28;1.27;;;22.80;58.80;;;;;;6254011;28;19977;-50
2022/06/11 07:08:57;;;;;;;;;;;22.70;58.70;;;;;;6257601;28;20059;-50
2022/06/11 07:11:58;;;;;;;3.97;1.00;;;22.60;58.60;;;;;;6272484;28;19925;-52
2022/06/11 07:15:00;;;;;;;11.15;1.90;;;22.60;58.50;;;;;;6267404;28;21009;-47
2022/06/11 07:18:05;;;;;;;3.45;0.80;;;22.60;58.40;;;;;;6268024;28;20063;-52
2022/06/11 07:21:13;;;;;;;5.95;1.25;;;22.80;58.50;;;;;;6270543;28;20046;-51
2022/06/11 07:24:18;;;;;;;1.42;0.50;;;22.60;58.30;;;;;;6267557;28;20132;-54
2022/06/11 07:27:23;;;;;;;1.40;0.50;;;22.60;58.30;;;;;;6270784;28;20064;-53
2022/06/11 07:30:27;;;;;;;2.03;0.93;;;22.70;58.30;;;;;;6269026;28;20048;-52
2022/06/11 07:33:29;;;;;;;2.95;0.68;;;22.50;58.20;;;;;;6268906;28;20074;-53
2022/06/11 07:36:30;;;;;;;3.05;0.70;;;22.70;58.20;;;;;;6266844;28;20051;-51
2022/06/11 07:39:33;;;;;;;2.60;0.63;;;22.70;58.10;;;;;;6273001;28;20896;-53
2022/06/11 07:42:34;;;;;;;2.83;0.63;;;22.60;57.90;;;;;;6266147;28;20902;-50
2022/06/11 07:45:38;;;;;;;2.88;1.10;;;22.70;57.90;;;;;;6266935;28;20032;-48
2022/06/11 07:48:40;;;;;;;2.28;0.70;;;22.50;57.70;;;;;;6242246;28;20196;-50
2022/06/11 07:51:42;;;;;;;2.20;0.70;;;22.70;57.70;;;;;;6249504;28;20110;-51
2022/06/11 07:54:44;;;;;;;1.95;0.88;;;22.60;57.50;;;;;;6252460;28;20841;-51
2022/06/11 07:57:46;;;;;;;2.72;0.73;;;22.80;57.60;;;;;;6257755;28;20848;-54
2022/06/11 08:00:50;;;;;;;3.33;1.05;;;22.70;57.50;;;;;;6263968;28;20052;-49
2022/06/11 08:03:52;;;;;;;2.72;0.77;;;22.70;57.50;;;;;;6266962;28;20043;-52
2022/06/11 08:06:53;;;;;;;4.57;1.17;;;22.70;57.50;;;;;;6263593;28;20104;-51
2022/06/11 08:09:57;;;;;;;4.05;1.13;;;22.50;57.30;;;;;;6249225;28;20291;-47
2022/06/11 08:12:59;;;;;;;4.85;1.05;;;22.70;57.40;;;;;;6256877;28;20601;-52
2022/06/11 08:16:02;;;;;;;4.63;1.13;;;23.00;57.40;;;;;;6255142;28;20883;-48
2022/06/11 08:19:04;;;;;;;2.75;0.70;;;22.70;57.20;;;;;;6252401;28;20048;-49
2022/06/11 08:22:06;;;;;;;3.28;0.65;;;22.80;57.20;;;;;;6249091;28;20291;-47
2022/06/11 08:25:08;;;;;;;3.60;0.95;;;22.80;57.20;;;;;;6254628;28;20080;-52
2022/06/11 08:28:12;;;;;;;2.35;0.98;;;22.60;57.00;;;;;;6253497;28;20197;-51
2022/06/11 08:31:13;;;;;;;3.85;1.02;;;22.70;57.00;;;;;;6250364;28;20927;-50
2022/06/11 08:34:15;;;;;;;3.75;1.02;;;22.80;57.00;;;;;;6257935;28;20044;-50
2022/06/11 08:37:16;;;;;;;2.80;0.70;;;22.90;57.00;;;;;;6252047;28;20863;-50
2022/06/11 08:40:25;;;;;;;0.88;0.40;;;22.80;56.90;;;;;;6255037;28;20154;-50
2022/06/11 08:43:30;;;;;;;1.67;0.52;;;22.80;56.90;;;;;;6255951;28;20110;-48
2022/06/11 08:46:36;;;;;;;1.98;0.57;;;23.00;57.00;;;;;;6252819;28;20040;-49
2022/06/11 08:49:43;;;;;;;1.45;0.30;;;22.90;57.00;;;;;;6253520;28;20079;-49
2022/06/11 08:52:46;;;;;;;1.60;0.50;;;22.90;57.00;;;;;;6249458;28;20322;-50
2022/06/11 08:55:48;;;;;;;0.98;0.40;;;23.00;56.90;;;;;;6252084;28;20052;-48
2022/06/11 08:59:02;;;;;;;0.65;0.30;;;22.80;56.70;;;;;;6252522;28;20428;-50
2022/06/11 09:02:24;;;;;;;2.25;0.50;;;23.00;56.80;;;;;;6257489;28;20402;-50
2022/06/11 09:05:38;;;;;;;0.57;0.32;;;23.00;56.80;;;;;;6254265;28;20148;-52
2022/06/11 09:08:55;;;;;;;0.63;0.20;;;23.00;56.70;;;;;;6254866;28;20589;-52
2022/06/11 09:12:06;;;;;;;0.40;0.30;;;22.90;56.60;;;;;;6254205;28;20486;-50
2022/06/11 09:15:18;;;;;;;0.50;0.20;;;23.10;56.60;;;;;;6254368;28;20395;-52
2022/06/11 09:18:34;;;;;;;1.55;0.43;;;23.10;56.60;;;;;;6252908;28;20670;-55
2022/06/11 09:21:52;;;;;;;0.63;0.22;;;23.10;56.50;;;;;;6255067;28;20058;-48
2022/06/11 09:25:11;;;;;;;0.60;0.30;;;23.10;56.40;;;;;;6255915;28;20352;-50
2022/06/11 09:28:25;;;;;;;1.38;0.20;;;23.20;56.30;;;;;;6253846;28;20494;-49
2022/06/11 09:31:34;;;;;;;0.17;0.13;;;23.30;56.30;;;;;;6261699;28;20156;-48
2022/06/11 09:34:45;;;;;;;0.73;0.22;;;23.30;56.10;;;;;;6255608;28;20936;-51
2022/06/11 09:38:02;;;;;;;0.40;0.20;;;23.30;55.90;;;;;;6256575;28;20261;-49
2022/06/11 09:41:13;;;;;;;0.25;0.20;;;23.30;55.70;;;;;;6252188;28;20293;-50
2022/06/11 09:44:27;;;;;;;1.08;0.50;;;23.50;55.70;;;;;;6252487;28;20369;-50
2022/06/11 09:47:38;;;;;;;2.42;0.60;;;23.40;55.30;;;;;;6254705;28;20517;-52
2022/06/11 09:50:46;;;;;;;3.70;0.70;;;23.30;54.80;;;;;;6250681;28;20205;-54
2022/06/11 09:54:03;;;;;;;1.15;0.40;;;23.50;54.60;;;;;;6254313;28;20349;-51
2022/06/11 09:57:19;;;;;;;1.23;0.45;;;23.40;54.30;;;;;;6256075;28;20334;-48
2022/06/11 10:00:26;;;;;;;1.08;0.45;;;23.30;53.80;;;;;;6250070;28;20039;-51
2022/06/11 10:03:35;;;;;;;0.30;0.20;;;23.40;53.70;;;;;;6256661;28;21073;-51
2022/06/11 10:06:41;;;;;;;1.23;0.40;;;23.30;53.60;;;;;;6250791;28;20102;-52
2022/06/11 10:09:45;;;;;;;1.00;0.40;;;23.40;53.50;;;;;;6253648;28;20044;-52
2022/06/11 10:12:51;;;;;;;0.50;0.25;;;23.40;53.30;;;;;;6251234;28;20142;-50
2022/06/11 10:15:54;;;;;;;0.25;0.20;;;23.40;53.20;;;;;;6251314;28;20094;-52
2022/06/11 10:19:13;;;;;;;0.45;0.30;;;23.50;53.30;;;;;;6254770;28;20043;-50
2022/06/11 10:22:17;;;;;;;0.10;0.10;;;23.50;53.30;;;;;;6253374;28;20199;-50
2022/06/11 10:25:26;;;;;;;0.30;0.20;;;23.50;53.30;;;;;;6252404;28;20389;-51
2022/06/11 10:28:32;;;;;;;0.43;0.30;;;23.50;53.10;;;;;;6251715;28;20408;-48
2022/06/11 10:31:42;;;;;;;2.33;0.80;;;23.60;53.00;;;;;;6250724;28;20396;-50
2022/06/11 10:34:52;;;;;;;2.10;0.50;;;23.60;52.40;;;;;;6253156;28;20079;-50
2022/06/11 10:38:01;;;;;;;2.38;0.57;;;23.60;51.90;;;;;;6253109;28;20079;-50
2022/06/11 10:41:05;;;;;;;1.02;0.43;;;23.60;51.70;;;;;;6253615;28;20846;-51
2022/06/11 10:44:19;;;;;;;2.33;0.70;;;23.70;51.50;;;;;;6253178;28;20376;-51
2022/06/11 10:47:26;;;;;;;2.05;0.40;;;23.60;51.10;;;;;;6250861;28;20391;-49
2022/06/11 10:50:30;;;;;;;1.33;0.30;;;23.60;51.00;;;;;;6245399;28;20541;-50
2022/06/11 10:53:40;;;;;;;1.10;0.50;;;23.60;51.00;;;;;;6253093;28;20766;-49
2022/06/11 10:56:47;;;;;;;1.05;0.20;;;23.80;50.90;;;;;;6252520;28;20147;-50
2022/06/11 10:59:52;;;;;;;0.40;0.20;;;23.70;50.80;;;;;;6254034;28;20412;-50
2022/06/11 11:02:58;;;;;;;1.33;0.38;;;23.50;50.60;;;;;;6250693;28;20032;-49
2022/06/11 11:06:03;;;;;;;1.33;0.30;;;23.70;50.60;;;;;;6251374;28;20055;-52
2022/06/11 11:09:07;;;;;;;1.58;0.38;;;23.70;50.40;;;;;;6255173;28;20401;-51
2022/06/11 11:12:18;;;;;;;0.50;0.32;;;23.70;50.90;;;;;;6244294;28;20512;-50
2022/06/11 11:15:24;;;;;;;1.05;0.40;;;23.70;50.10;;;;;;6249906;28;21090;-50
2022/06/11 11:18:35;;;;;;;0.93;0.52;;;23.90;50.20;;;;;;6251758;28;20147;-51
2022/06/11 11:21:40;;;;;;;0.50;0.30;;;23.70;49.90;;;;;;6251734;28;20241;-50
2022/06/11 11:24:45;;;;;;;0.28;0.28;;;23.70;49.90;;;;;;6254764;28;20344;-50
2022/06/11 11:27:50;;;;;;;0.50;0.30;;;23.70;49.80;;;;;;6255553;28;20457;-51
2022/06/11 11:31:05;;;;;;;0.35;0.30;;;23.90;49.80;;;;;;6254330;28;20234;-51
2022/06/11 11:34:15;;;;;;;0.90;0.35;;;23.70;49.60;;;;;;6249303;28;20209;-51
2022/06/11 11:37:23;;;;;;;0.30;0.20;;;23.90;49.60;;;;;;6244033;28;20360;-55
2022/06/11 11:40:29;;;;;;;0.20;0.20;;;23.80;49.40;;;;;;6253102;28;20737;-49
2022/06/11 11:43:35;;;;;;;0.20;0.20;;;23.80;49.40;;;;;;6229828;28;20140;-48
2022/06/11 11:46:39;;;;;;;0.65;0.30;;;23.80;49.20;;;;;;6244656;28;20044;-51
2022/06/11 11:49:46;;;;;;;0.60;0.20;;;23.80;49.00;;;;;;6244935;28;20602;-50
2022/06/11 11:52:52;;;;;;;0.35;0.20;;;23.80;48.70;;;;;;6226125;28;20523;-49
2022/06/11 11:55:57;;;;;;;0.95;0.45;;;23.90;48.30;;;;;;6225568;28;20044;-51
2022/06/11 11:59:04;;;;;;;0.40;0.30;;;23.80;48.00;;;;;;6234807;28;20051;-53
2022/06/11 12:02:16;;;;;;;0.35;0.30;;;23.90;47.80;;;;;;6234080;28;20374;-51
2022/06/11 12:05:22;;;;;;;1.15;0.32;;;23.90;47.60;;;;;;6244351;28;20246;-49
2022/06/11 12:08:26;;;;;;;0.22;0.22;;;23.90;47.60;;;;;;6246604;28;20054;-51
2022/06/11 12:11:35;;;;;;;0.50;0.30;;;24.10;47.70;;;;;;6239079;28;20367;-52
2022/06/11 12:14:39;;;;;;;0.50;0.30;;;24.00;47.50;;;;;;6244210;28;20449;-51
2022/06/11 12:17:45;;;;;;;0.65;0.35;;;23.90;47.40;;;;;;6220577;28;20175;-50
2022/06/11 12:20:51;;;;;;;0.40;0.30;;;23.90;47.30;;;;;;6241937;28;20035;-50
2022/06/11 12:24:01;;;;;;;0.50;0.40;;;23.90;47.10;;;;;;6247307;28;20108;-50
2022/06/11 12:27:10;;;;;;;0.60;0.20;;;23.80;46.90;;;;;;6242681;28;20567;-54
2022/06/11 12:30:25;;;;;;;1.67;0.43;;;23.90;46.80;;;;;;6242615;28;20263;-53
2022/06/11 12:33:28;;;;;;;0.68;0.38;;;23.90;46.50;;;;;;6251708;28;20039;-49
2022/06/11 12:36:50;;;;;;;0.55;0.30;;;24.00;46.40;;;;;;6244149;28;20687;-50
2022/06/11 12:40:04;;;;;;;0.30;0.30;;;24.00;46.00;;;;;;6224291;28;21428;-53
2022/06/11 12:43:22;;;;;;;0.65;0.20;;;23.90;45.90;;;;;;6241208;28;20075;-50
2022/06/11 12:46:35;;;;;;;0.20;0.20;;;24.00;46.00;;;;;;6246242;28;20040;-50
2022/06/11 12:49:44;;;;;;;0.60;0.40;;;24.00;46.00;;;;;;6242241;28;20641;-48
2022/06/11 12:52:55;;;;;;;0.40;0.20;;;24.20;46.20;;;;;;6241830;28;20044;-52
2022/06/11 12:56:17;;;;;;;0.20;0.10;;;24.00;46.10;;;;;;6250195;28;20233;-49
2022/06/11 12:59:34;;;;;;;0.45;0.22;;;24.00;46.30;;;;;;6251162;28;20371;-51
2022/06/11 13:02:48;;;;;;;0.63;0.30;;;24.00;46.30;;;;;;6255530;28;20115;-49
2022/06/11 13:06:10;;;;;;;0.38;0.25;;;24.00;46.30;;;;;;6253266;28;20246;-47
2022/06/11 13:09:25;;;;;;;0.40;0.40;;;24.00;46.30;;;;;;6252406;28;20464;-50
2022/06/11 13:12:46;;;;;;;1.05;0.30;;;24.00;46.10;;;;;;6253635;28;20039;-52
2022/06/11 13:15:56;;;;;;;0.80;0.35;;;24.20;46.00;;;;;;6272549;28;20158;-53
2022/06/11 13:19:12;;;;;;;0.93;0.30;;;24.00;45.80;;;;;;6253149;28;20036;-49
2022/06/11 13:22:25;;;;;;;2.00;0.40;;;24.10;45.80;;;;;;6267902;28;20451;-53
2022/06/11 13:25:37;;;;;;;1.30;0.50;;;24.00;45.60;;;;;;6265079;28;20150;-51
2022/06/11 13:28:50;;;;;;;0.73;0.30;;;24.00;45.50;;;;;;6261265;28;21168;-52
2022/06/11 13:32:00;;;;;;;0.77;0.30;;;24.00;45.30;;;;;;6266796;28;20040;-53
2022/06/11 13:35:18;;;;;;;0.93;0.35;;;24.00;45.20;;;;;;6267332;28;20150;-51
2022/06/11 13:38:31;;;;;;;0.30;0.20;;;24.00;45.10;;;;;;6259370;28;21208;-49
2022/06/11 13:41:45;;;;;;;0.25;0.20;;;24.00;45.20;;;;;;6263135;28;20145;-50
2022/06/11 13:45:11;;;;;;;0.90;0.30;;;24.00;45.20;;;;;;6261763;28;20091;-56
2022/06/11 13:48:19;;;;;;;0.45;0.30;;;24.00;45.20;;;;;;6260012;28;20131;-52
2022/06/11 13:51:23;;;;;;;0.30;0.25;;;23.90;45.10;;;;;;6209734;28;20090;-50
2022/06/11 13:58:15;;;;;;;0.32;0.20;;;24.00;45.20;;;;;;6258711;28;20162;-50
2022/06/11 14:01:34;;;;;;;0.65;0.20;;;24.00;45.00;;;;;;6257448;28;20146;-52
2022/06/11 14:04:39;;;;;;;0.45;0.30;;;24.10;45.10;;;;;;6259585;28;20063;-51
2022/06/11 14:07:41;;;;;;;1.00;0.30;;;24.00;44.90;;;;;;6258467;28;20355;-48
2022/06/11 14:11:02;;;;;;;0.50;0.30;;;24.00;44.90;;;;;;6256402;28;20047;-52
2022/06/11 14:14:30;;;;;;;0.60;0.30;;;24.00;44.90;;;;;;6257281;28;20043;-50
2022/06/11 14:17:44;;;;;;;0.65;0.20;;;24.10;44.30;;;;;;6254878;28;20166;-49
2022/06/11 14:20:49;;;;;;;0.98;0.25;;;24.10;44.80;;;;;;6257426;28;20040;-51
2022/06/11 14:23:51;;;;;;;0.93;0.35;;;24.00;44.80;;;;;;6256327;28;20974;-50
2022/06/11 14:26:56;;;;;;;0.93;0.20;;;24.10;45.40;;;;;;6260293;28;20050;-52
2022/06/11 14:30:18;;;;;;;1.58;0.30;;;24.10;44.70;;;;;;6250786;28;20163;-52
2022/06/11 14:33:24;;;;;;;1.75;0.55;;;24.10;44.70;;;;;;6260325;28;20043;-52
2022/06/11 14:36:26;;;;;;;0.85;0.30;;;24.20;44.80;;;;;;6258238;28;20044;-53
2022/06/11 14:39:31;;;;;;;0.95;0.30;;;24.10;44.60;;;;;;6252505;28;20078;-51
2022/06/11 14:42:57;;;;;;;2.13;0.40;;;24.10;44.60;;;;;;6238226;28;20056;-52
2022/06/11 14:46:01;;;;;;;1.20;0.40;;;24.10;44.40;;;;;;6255055;28;20228;-48
2022/06/11 14:49:09;;;;;;;1.02;0.47;;;24.00;44.30;;;;;;6249770;28;20155;-52
2022/06/11 14:52:31;;;;;;;3.00;0.60;;;24.10;44.30;;;;;;6261476;28;20880;-51
2022/06/11 14:55:36;;;;;;;1.33;0.43;;;24.10;44.40;;;;;;6258122;28;20177;-52
2022/06/11 14:58:52;;;;;;;1.88;0.70;;;24.10;44.70;;;;;;6263290;28;20028;-51
2022/06/11 15:02:12;;;;;;;3.88;0.70;;;24.10;45.30;;;;;;6262789;28;20067;-51
2022/06/11 15:05:31;;;;;;;2.40;0.80;;;24.10;45.90;;;;;;6259345;28;20098;-50
2022/06/11 15:08:52;;;;;;;1.08;0.50;;;24.10;46.50;;;;;;6260859;28;20039;-54
2022/06/11 15:12:01;;;;;;;3.08;0.70;;;24.10;46.90;;;;;;6258270;28;20036;-49
2022/06/11 15:15:26;;;;;;;2.30;0.63;;;24.20;47.40;;;;;;6264424;28;20048;-52
2022/06/11 15:18:31;;;;;;;3.70;0.93;;;24.10;47.90;;;;;;6263957;28;20060;-50
2022/06/11 15:21:37;;;;;;;2.92;0.75;;;24.20;48.20;;;;;;6242117;28;20051;-53
2022/06/11 15:24:43;;;;;;;2.97;0.93;;;24.10;48.40;;;;;;6260434;28;20146;-52
2022/06/11 15:27:47;;;;;;;6.63;0.90;;;24.00;48.60;;;;;;6258916;28;20039;-53
2022/06/11 15:30:49;;;;;;;6.10;0.85;;;24.20;48.90;;;;;;6260890;28;20155;-51
2022/06/11 15:34:02;;;;;;;5.53;0.70;;;24.10;49.10;;;;;;6261542;28;20059;-52
2022/06/11 15:37:24;;;;;;;6.07;1.00;;;24.20;49.10;;;;;;6259525;28;20128;-51
2022/06/11 15:40:30;;;;;;;6.10;1.20;;;24.20;49.20;;;;;;6258247;28;20050;-48
2022/06/11 15:43:36;;;;;;;4.53;1.08;;;24.20;49.20;;;;;;6238333;28;20134;-52
2022/06/11 15:46:39;;;;;;;4.05;1.02;;;24.20;49.20;;;;;;6254061;28;20117;-51
2022/06/11 15:49:44;;;;;;;2.22;0.63;;;24.10;49.20;;;;;;6258620;28;20060;-48
2022/06/11 15:52:50;;;;;;;2.75;0.70;;;24.20;49.30;;;;;;6261133;28;20104;-50
2022/06/11 15:55:53;;;;;;;3.30;0.90;;;24.20;49.20;;;;;;6249963;28;21261;-49
2022/06/11 15:59:06;;;;;;;2.67;0.60;;;24.20;49.10;;;;;;6262058;28;20996;-48
2022/06/11 16:02:16;;;;;;;2.42;0.90;;;24.20;49.00;;;;;;6259460;28;21519;-53
2022/06/11 16:05:22;;;;;;;2.20;0.70;;;24.20;48.80;;;;;;6262105;28;20044;-51
2022/06/11 16:08:26;;;;;;;2.10;0.60;;;24.20;48.80;;;;;;6255515;28;20289;-50
2022/06/11 16:11:31;;;;;;;2.97;0.60;;;24.20;48.60;;;;;;6253466;28;20047;-50
2022/06/11 16:14:40;;;;;;;2.67;0.60;;;24.20;48.50;;;;;;6254438;28;20090;-51
2022/06/11 16:17:44;;;;;;;2.58;0.65;;;24.20;48.30;;;;;;6262134;28;20044;-51